createdAt,value
2023-10-08T00:01:34.396Z,11.00
2023-10-08T00:04:05.214Z,11.03
2023-10-08T00:06:31.999Z,11.01
2023-10-08T00:09:01.845Z,11.01
2023-10-08T00:11:30.356Z,11.01
2023-10-08T00:13:57.777Z,10.99
2023-10-08T00:16:24.900Z,11.00
2023-10-08T00:18:52.744Z,11.07
2023-10-08T00:21:27.166Z,10.99
2023-10-08T00:24:07.242Z,11.01
2023-10-08T00:26:36.318Z,10.90
2023-10-08T00:29:07.796Z,10.99
2023-10-08T00:31:41.824Z,10.95
2023-10-08T00:34:13.169Z,11.07
2023-10-08T00:36:44.362Z,10.93
2023-10-08T00:39:15.304Z,10.97
2023-10-08T00:41:44.358Z,10.87
2023-10-08T00:44:17.595Z,10.83
2023-10-08T00:46:50.489Z,10.92
2023-10-08T00:49:36.425Z,10.78
2023-10-08T00:52:09.455Z,10.91
2023-10-08T00:54:47.729Z,10.92
2023-10-08T00:57:21.168Z,10.90
2023-10-08T00:59:54.726Z,10.95
2023-10-08T01:02:26.501Z,10.94
2023-10-08T01:04:55.394Z,10.95
2023-10-08T01:07:22.989Z,10.92
2023-10-08T01:09:53.110Z,10.90
2023-10-08T01:12:25.041Z,10.91
2023-10-08T01:14:54.842Z,10.90
2023-10-08T01:17:25.749Z,10.88
2023-10-08T01:20:10.157Z,10.87
2023-10-08T01:22:39.971Z,10.88
2023-10-08T01:25:07.199Z,10.88
2023-10-08T01:27:36.497Z,10.88
2023-10-08T01:30:19.017Z,10.85
2023-10-08T01:32:46.501Z,10.87
2023-10-08T01:35:27.227Z,10.85
2023-10-08T01:37:57.250Z,10.83
2023-10-08T01:40:24.203Z,10.80
2023-10-08T01:42:54.204Z,10.77
2023-10-08T01:45:21.222Z,10.81
2023-10-08T01:47:52.989Z,10.82
2023-10-08T01:50:23.224Z,10.70
2023-10-08T01:52:50.120Z,10.83
2023-10-08T01:55:20.793Z,10.80
2023-10-08T01:57:50.181Z,10.79
2023-10-08T02:00:23.865Z,10.73
2023-10-08T02:02:51.927Z,10.70
2023-10-08T02:05:20.718Z,10.72
2023-10-08T02:07:47.852Z,10.71
2023-10-08T02:10:17.700Z,10.71
2023-10-08T02:12:44.381Z,10.67
2023-10-08T02:15:14.416Z,10.75
2023-10-08T02:17:41.234Z,10.75
2023-10-08T02:20:09.395Z,10.71
2023-10-08T02:22:36.858Z,10.76
2023-10-08T02:25:04.742Z,10.76
2023-10-08T02:27:34.217Z,10.82
2023-10-08T02:30:04.401Z,10.80
2023-10-08T02:32:31.180Z,10.61
2023-10-08T02:34:58.599Z,10.73
2023-10-08T02:37:25.502Z,10.74
2023-10-08T02:39:52.617Z,10.65
2023-10-08T02:42:19.873Z,10.71
2023-10-08T02:44:47.082Z,10.69
2023-10-08T02:47:15.288Z,10.64
2023-10-08T02:49:42.853Z,10.68
2023-10-08T02:52:10.027Z,10.72
2023-10-08T02:54:40.145Z,10.64
2023-10-08T02:57:11.852Z,10.59
2023-10-08T02:59:45.036Z,10.61
2023-10-08T03:02:22.714Z,10.65
2023-10-08T03:04:56.653Z,10.61
2023-10-08T03:07:24.219Z,10.57
2023-10-08T03:09:52.490Z,10.52
2023-10-08T03:12:19.694Z,10.58
2023-10-08T03:15:09.941Z,10.58
2023-10-08T03:17:39.006Z,10.55
2023-10-08T03:20:26.629Z,10.58
2023-10-08T03:22:53.657Z,10.58
2023-10-08T03:25:20.804Z,10.51
2023-10-08T03:27:49.605Z,10.54
2023-10-08T03:30:16.991Z,10.48
2023-10-08T03:32:45.924Z,10.47
2023-10-08T03:35:13.707Z,10.49
2023-10-08T03:37:47.583Z,10.29
2023-10-08T03:40:26.491Z,10.40
2023-10-08T03:42:56.973Z,10.35
2023-10-08T03:45:43.082Z,10.28
2023-10-08T03:48:16.334Z,10.28
2023-10-08T03:50:44.583Z,10.31
2023-10-08T03:53:14.323Z,10.32
2023-10-08T03:55:45.084Z,10.35
2023-10-08T03:58:20.624Z,10.27
2023-10-08T04:00:47.943Z,10.25
2023-10-08T04:03:24.662Z,10.28
2023-10-08T04:06:15.594Z,10.22
2023-10-08T04:08:47.268Z,10.09
2023-10-08T04:11:31.219Z,10.06
2023-10-08T04:14:01.312Z,9.94
2023-10-08T04:16:29.052Z,9.91
2023-10-08T04:19:04.275Z,9.92
2023-10-08T04:21:34.758Z,9.85
2023-10-08T04:24:05.769Z,9.94
2023-10-08T04:26:33.622Z,9.97
2023-10-08T04:29:07.687Z,9.87
2023-10-08T04:31:44.711Z,9.86
2023-10-08T04:34:16.701Z,9.94
2023-10-08T04:36:46.668Z,9.98
2023-10-08T04:39:22.658Z,9.94
2023-10-08T04:41:50.525Z,9.89
2023-10-08T04:44:17.745Z,9.79
2023-10-08T04:46:48.878Z,9.63
2023-10-08T04:49:31.292Z,9.57
2023-10-08T04:51:58.160Z,9.57
2023-10-08T04:54:32.049Z,9.46
2023-10-08T04:57:03.751Z,9.37
2023-10-08T04:59:34.982Z,9.37
2023-10-08T05:02:13.923Z,9.36
2023-10-08T05:04:53.145Z,9.27
2023-10-08T05:07:43.435Z,9.25
2023-10-08T05:10:10.243Z,9.19
2023-10-08T05:12:51.832Z,9.18
2023-10-08T05:15:18.766Z,9.15
2023-10-08T05:17:53.094Z,9.14
2023-10-08T05:20:47.676Z,9.01
2023-10-08T05:23:21.262Z,9.03
2023-10-08T05:26:00.825Z,9.10
2023-10-08T05:28:28.968Z,9.10
2023-10-08T05:31:14.574Z,9.10
2023-10-08T05:34:01.132Z,9.04
2023-10-08T05:36:51.183Z,9.08
2023-10-08T05:39:33.427Z,9.09
2023-10-08T05:42:21.586Z,9.05
2023-10-08T05:45:15.632Z,9.05
2023-10-08T05:48:02.721Z,9.04
2023-10-08T05:50:40.321Z,9.14
2023-10-08T05:53:20.761Z,9.22
2023-10-08T05:56:02.302Z,9.30
2023-10-08T05:58:46.663Z,9.37
2023-10-08T06:01:30.839Z,9.39
2023-10-08T06:04:22.058Z,9.34
2023-10-08T06:07:09.382Z,9.28
2023-10-08T06:09:38.743Z,9.21
2023-10-08T06:12:13.805Z,9.36
2023-10-08T06:14:54.022Z,9.41
2023-10-08T06:17:40.127Z,9.50
2023-10-08T06:20:17.929Z,9.59
2023-10-08T06:22:45.113Z,9.84
2023-10-08T06:25:24.142Z,10.04
2023-10-08T06:27:58.746Z,10.23
2023-10-08T06:30:30.261Z,10.25
2023-10-08T06:32:57.744Z,10.24
2023-10-08T06:35:27.276Z,10.26
2023-10-08T06:38:00.742Z,10.43
2023-10-08T06:40:39.917Z,10.50
2023-10-08T06:43:17.772Z,10.49
2023-10-08T06:45:46.907Z,10.82
2023-10-08T06:48:21.982Z,11.40
2023-10-08T06:50:50.382Z,11.77
2023-10-08T06:53:19.374Z,12.04
2023-10-08T06:55:49.144Z,12.17
2023-10-08T06:58:16.420Z,11.97
2023-10-08T07:00:50.146Z,11.75
2023-10-08T07:03:18.887Z,11.63
2023-10-08T07:06:03.387Z,11.09
2023-10-08T07:08:33.649Z,10.83
2023-10-08T07:11:02.661Z,10.79
2023-10-08T07:13:30.678Z,10.62
2023-10-08T07:15:57.898Z,10.56
2023-10-08T07:18:28.559Z,10.42
2023-10-08T07:20:56.942Z,10.32
2023-10-08T07:23:35.484Z,10.24
2023-10-08T07:26:12.942Z,10.22
2023-10-08T07:28:43.285Z,10.28
2023-10-08T07:31:18.915Z,10.29
2023-10-08T07:33:57.606Z,10.14
2023-10-08T07:36:25.043Z,10.32
2023-10-08T07:38:52.776Z,10.22
2023-10-08T07:41:21.401Z,10.29
2023-10-08T07:43:59.634Z,10.39
2023-10-08T07:46:27.543Z,10.41
2023-10-08T07:49:00.768Z,10.32
2023-10-08T07:51:28.745Z,10.47
2023-10-08T07:53:57.402Z,10.49
2023-10-08T07:56:25.133Z,10.55
2023-10-08T07:58:53.620Z,10.52
2023-10-08T08:01:22.169Z,10.50
2023-10-08T08:03:50.298Z,10.60
2023-10-08T08:06:17.180Z,10.55
2023-10-08T08:08:45.486Z,10.61
2023-10-08T08:11:18.552Z,10.71
2023-10-08T08:13:46.429Z,10.71
2023-10-08T08:16:18.018Z,10.70
2023-10-08T08:18:53.232Z,10.80
2023-10-08T08:21:20.686Z,10.85
2023-10-08T08:23:51.442Z,10.78
2023-10-08T08:26:31.021Z,10.81
2023-10-08T08:29:01.065Z,10.81
2023-10-08T08:31:36.548Z,10.91
2023-10-08T08:34:09.396Z,10.90
2023-10-08T08:36:40.244Z,10.98
2023-10-08T08:39:09.768Z,10.97
2023-10-08T08:41:39.476Z,10.99
2023-10-08T08:44:08.129Z,10.93
2023-10-08T08:46:36.865Z,11.09
2023-10-08T08:49:05.909Z,11.06
2023-10-08T08:51:33.148Z,11.16
2023-10-08T08:54:01.803Z,11.26
2023-10-08T08:56:30.370Z,11.26
2023-10-08T08:59:00.138Z,11.31
2023-10-08T09:01:27.110Z,11.23
2023-10-08T09:04:06.130Z,11.44
2023-10-08T09:06:35.224Z,11.38
2023-10-08T09:09:21.705Z,11.39
2023-10-08T09:11:56.128Z,11.44
2023-10-08T09:14:26.559Z,11.54
2023-10-08T09:16:55.261Z,11.59
2023-10-08T09:19:25.986Z,11.62
2023-10-08T09:22:06.301Z,11.63
2023-10-08T09:24:37.632Z,11.69
2023-10-08T09:27:08.918Z,11.75
2023-10-08T09:29:41.990Z,11.81
2023-10-08T09:32:14.510Z,11.80
2023-10-08T09:34:41.805Z,11.80
2023-10-08T09:37:09.027Z,11.85
2023-10-08T09:39:38.297Z,11.88
2023-10-08T09:42:08.394Z,12.04
2023-10-08T09:44:35.850Z,11.99
2023-10-08T09:47:07.950Z,12.04
2023-10-08T09:49:45.421Z,12.00
2023-10-08T09:52:13.971Z,12.05
2023-10-08T09:54:45.158Z,12.06
2023-10-08T09:57:12.551Z,12.13
2023-10-08T09:59:42.170Z,12.23
2023-10-08T10:02:11.627Z,12.25
2023-10-08T10:04:45.559Z,12.27
2023-10-08T10:07:14.232Z,12.29
2023-10-08T10:09:46.051Z,12.33
2023-10-08T10:12:13.634Z,12.26
2023-10-08T10:14:45.945Z,12.28
2023-10-08T10:17:42.293Z,12.25
2023-10-08T10:20:15.173Z,12.36
2023-10-08T10:22:44.831Z,12.48
2023-10-08T10:25:21.602Z,12.50
2023-10-08T10:27:52.235Z,12.61
2023-10-08T10:30:22.798Z,12.61
2023-10-08T10:33:01.341Z,12.65
2023-10-08T10:35:29.490Z,12.70
2023-10-08T10:38:04.350Z,12.66
2023-10-08T10:40:40.705Z,12.80
2023-10-08T10:43:10.667Z,12.75
2023-10-08T10:45:38.285Z,12.93
2023-10-08T10:48:20.840Z,12.91
2023-10-08T10:51:09.659Z,12.94
2023-10-08T10:53:57.232Z,12.90
2023-10-08T10:56:40.703Z,12.83
2023-10-08T10:59:20.293Z,12.89
2023-10-08T11:01:56.363Z,12.76
2023-10-08T11:04:30.376Z,12.87
2023-10-08T11:06:59.749Z,12.82
2023-10-08T11:09:45.559Z,12.76
2023-10-08T11:12:19.918Z,12.71
2023-10-08T11:14:53.139Z,12.76
2023-10-08T11:17:29.533Z,12.69
2023-10-08T11:19:56.393Z,12.83
2023-10-08T11:22:24.181Z,12.96
2023-10-08T11:24:55.209Z,13.00
2023-10-08T11:27:36.754Z,13.06
2023-10-08T11:30:12.247Z,13.07
2023-10-08T11:32:40.190Z,13.08
2023-10-08T11:35:17.748Z,13.02
2023-10-08T11:37:52.562Z,12.90
2023-10-08T11:40:30.184Z,13.06
2023-10-08T11:43:00.325Z,13.15
2023-10-08T11:45:28.290Z,13.15
2023-10-08T11:47:58.590Z,13.26
2023-10-08T11:50:32.171Z,13.29
2023-10-08T11:53:04.303Z,13.27
2023-10-08T11:55:36.408Z,13.29
2023-10-08T11:58:11.589Z,13.47
2023-10-08T12:00:46.992Z,13.57
2023-10-08T12:03:20.347Z,13.80
2023-10-08T12:05:50.085Z,13.92
2023-10-08T12:08:22.162Z,14.32
2023-10-08T12:10:50.311Z,14.53
2023-10-08T12:13:19.362Z,14.48
2023-10-08T12:15:46.610Z,14.42
2023-10-08T12:18:17.040Z,14.33
2023-10-08T12:20:45.193Z,14.24
2023-10-08T12:23:12.704Z,14.22
2023-10-08T12:25:39.504Z,14.26
2023-10-08T12:28:07.941Z,14.27
2023-10-08T12:30:42.649Z,14.35
2023-10-08T12:33:17.146Z,14.39
2023-10-08T12:35:45.625Z,14.23
2023-10-08T12:38:14.165Z,14.12
2023-10-08T12:40:53.898Z,14.01
2023-10-08T12:43:22.035Z,13.83
2023-10-08T12:45:55.992Z,13.87
2023-10-08T12:48:28.660Z,13.97
2023-10-08T12:50:59.452Z,14.15
2023-10-08T12:53:38.151Z,14.13
2023-10-08T12:56:15.912Z,14.21
2023-10-08T12:58:49.526Z,14.22
2023-10-08T13:01:18.856Z,14.13
2023-10-08T13:03:50.059Z,14.33
2023-10-08T13:06:45.424Z,14.25
2023-10-08T13:09:15.408Z,14.11
2023-10-08T13:11:44.075Z,13.94
2023-10-08T13:14:12.814Z,13.80
2023-10-08T13:16:41.304Z,13.75
2023-10-08T13:19:10.125Z,13.57
2023-10-08T13:21:38.251Z,13.41
2023-10-08T13:24:09.921Z,13.39
2023-10-08T13:26:39.840Z,13.41
2023-10-08T13:29:07.461Z,13.42
2023-10-08T13:31:37.831Z,13.40
2023-10-08T13:34:09.781Z,13.40
2023-10-08T13:36:38.946Z,13.35
2023-10-08T13:39:11.290Z,13.43
2023-10-08T13:41:40.279Z,13.34
2023-10-08T13:44:07.855Z,13.40
2023-10-08T13:46:37.904Z,13.31
2023-10-08T13:49:07.279Z,13.33
2023-10-08T13:51:36.288Z,13.16
2023-10-08T13:54:07.860Z,13.16
2023-10-08T13:56:36.053Z,13.19
2023-10-08T13:59:15.080Z,13.15
2023-10-08T14:01:53.429Z,13.20
2023-10-08T14:04:21.512Z,13.23
2023-10-08T14:06:49.277Z,13.05
2023-10-08T14:09:22.583Z,13.05
2023-10-08T14:11:51.638Z,13.20
2023-10-08T14:14:20.841Z,13.22
2023-10-08T14:16:53.254Z,13.28
2023-10-08T14:19:30.038Z,13.23
2023-10-08T14:22:01.522Z,13.14
2023-10-08T14:24:32.532Z,13.18
2023-10-08T14:27:10.791Z,13.13
2023-10-08T14:29:41.947Z,13.07
2023-10-08T14:32:11.680Z,13.05
2023-10-08T14:34:47.839Z,13.05
2023-10-08T14:37:33.390Z,12.98
2023-10-08T14:40:19.027Z,13.02
2023-10-08T14:43:00.131Z,12.95
2023-10-08T14:45:36.286Z,12.96
2023-10-08T14:48:06.854Z,13.00
2023-10-08T14:50:34.673Z,12.96
2023-10-08T14:53:03.073Z,12.97
2023-10-08T14:55:31.319Z,13.00
2023-10-08T14:57:58.403Z,13.04
2023-10-08T15:00:28.219Z,13.02
2023-10-08T15:02:55.791Z,13.02
2023-10-08T15:05:23.818Z,12.99
2023-10-08T15:07:54.089Z,13.06
2023-10-08T15:10:24.849Z,13.05
2023-10-08T15:12:53.387Z,13.06
2023-10-08T15:15:26.538Z,13.05
2023-10-08T15:17:53.779Z,13.10
2023-10-08T15:20:23.182Z,13.05
2023-10-08T15:22:50.666Z,13.16
2023-10-08T15:25:19.247Z,13.19
2023-10-08T15:27:47.773Z,13.13
2023-10-08T15:30:16.980Z,12.99
2023-10-08T15:32:45.266Z,13.10
2023-10-08T15:35:15.554Z,13.08
2023-10-08T15:37:43.128Z,13.07
2023-10-08T15:40:18.423Z,13.08
2023-10-08T15:42:52.895Z,13.06
2023-10-08T15:45:21.275Z,13.05
2023-10-08T15:47:50.226Z,12.98
2023-10-08T15:50:21.408Z,12.95
2023-10-08T15:52:49.551Z,12.86
2023-10-08T15:55:16.743Z,12.88
2023-10-08T15:57:43.573Z,12.86
2023-10-08T16:00:11.161Z,12.77
2023-10-08T16:02:38.194Z,12.82
2023-10-08T16:05:08.984Z,12.85
2023-10-08T16:07:36.269Z,12.83
2023-10-08T16:10:03.662Z,12.84
2023-10-08T16:12:30.669Z,12.80
2023-10-08T16:14:57.851Z,12.82
2023-10-08T16:17:25.127Z,12.72
2023-10-08T16:19:54.960Z,12.61
2023-10-08T16:22:21.656Z,12.57
2023-10-08T16:24:49.818Z,12.62
2023-10-08T16:27:16.856Z,12.55
2023-10-08T16:29:45.023Z,12.36
2023-10-08T16:32:13.132Z,12.46
2023-10-08T16:34:40.263Z,12.40
2023-10-08T16:37:07.300Z,12.41
2023-10-08T16:39:34.524Z,12.37
2023-10-08T16:42:01.278Z,12.37
2023-10-08T16:44:28.499Z,12.33
2023-10-08T16:46:55.253Z,12.31
2023-10-08T16:49:22.618Z,12.36
2023-10-08T16:51:49.477Z,12.29
2023-10-08T16:54:17.354Z,12.32
2023-10-08T16:56:45.253Z,12.28
2023-10-08T16:59:15.341Z,12.19
2023-10-08T17:01:45.839Z,12.13
2023-10-08T17:04:14.056Z,12.03
2023-10-08T17:06:41.348Z,11.93
2023-10-08T17:09:18.099Z,11.95
2023-10-08T17:11:47.234Z,11.88
2023-10-08T17:14:15.484Z,11.90
2023-10-08T17:16:43.187Z,11.91
2023-10-08T17:19:10.388Z,11.88
2023-10-08T17:21:37.420Z,11.88
2023-10-08T17:24:07.697Z,11.89
2023-10-08T17:26:35.607Z,11.90
2023-10-08T17:29:03.406Z,11.89
2023-10-08T17:31:34.986Z,11.89
2023-10-08T17:34:03.214Z,11.87
2023-10-08T17:36:33.708Z,11.88
2023-10-08T17:39:10.399Z,11.80
2023-10-08T17:41:37.806Z,11.90
2023-10-08T17:44:07.115Z,11.87
2023-10-08T17:46:34.458Z,11.90
2023-10-08T17:49:01.755Z,11.87
2023-10-08T17:51:29.036Z,11.90
2023-10-08T17:53:56.307Z,11.93
2023-10-08T17:56:23.430Z,11.89
2023-10-08T17:58:50.476Z,11.86
2023-10-08T18:01:17.794Z,11.84
2023-10-08T18:03:46.184Z,11.80
2023-10-08T18:06:15.741Z,11.74
2023-10-08T18:08:43.931Z,11.72
2023-10-08T18:11:11.326Z,11.73
2023-10-08T18:13:42.023Z,11.85
2023-10-08T18:16:11.994Z,11.82
2023-10-08T18:18:42.414Z,11.79
2023-10-08T18:21:17.765Z,11.79
2023-10-08T18:23:47.964Z,11.73
2023-10-08T18:26:16.735Z,11.72
2023-10-08T18:28:47.071Z,11.74
2023-10-08T18:31:14.516Z,11.76
2023-10-08T18:33:44.437Z,11.79
2023-10-08T18:36:13.654Z,11.79
2023-10-08T18:38:42.532Z,11.79
2023-10-08T18:41:12.475Z,11.79
2023-10-08T18:43:39.874Z,11.78
2023-10-08T18:46:10.892Z,11.71
2023-10-08T18:48:42.064Z,11.59
2023-10-08T18:51:14.224Z,11.60
2023-10-08T18:53:46.380Z,11.55
2023-10-08T18:56:15.493Z,11.52
2023-10-08T18:58:43.428Z,11.48
2023-10-08T19:01:13.288Z,11.49
2023-10-08T19:03:44.721Z,11.54
2023-10-08T19:06:12.196Z,11.48
2023-10-08T19:08:39.764Z,11.51
2023-10-08T19:11:10.325Z,11.55
2023-10-08T19:13:38.378Z,11.59
2023-10-08T19:16:08.398Z,11.58
2023-10-08T19:18:37.325Z,11.57
2023-10-08T19:21:10.669Z,11.56
2023-10-08T19:23:37.779Z,11.51
2023-10-08T19:26:05.379Z,11.51
2023-10-08T19:28:33.357Z,11.50
2023-10-08T19:31:03.590Z,11.47
2023-10-08T19:33:31.014Z,11.43
2023-10-08T19:35:58.965Z,11.36
2023-10-08T19:38:26.267Z,11.38
2023-10-08T19:40:54.201Z,11.32
2023-10-08T19:43:20.912Z,11.36
2023-10-08T19:45:48.929Z,11.31
2023-10-08T19:48:16.213Z,11.29
2023-10-08T19:50:43.981Z,11.25
2023-10-08T19:53:11.922Z,11.24
2023-10-08T19:55:46.773Z,11.24
2023-10-08T19:58:16.044Z,11.19
2023-10-08T20:00:44.971Z,11.19
2023-10-08T20:03:12.356Z,11.18
2023-10-08T20:05:41.148Z,11.17
2023-10-08T20:08:07.994Z,11.19
2023-10-08T20:10:38.133Z,11.25
2023-10-08T20:13:05.586Z,11.17
2023-10-08T20:15:32.654Z,11.21
2023-10-08T20:18:00.196Z,11.23
2023-10-08T20:20:30.888Z,11.23
2023-10-08T20:22:57.738Z,11.20
2023-10-08T20:25:34.838Z,11.17
2023-10-08T20:28:01.733Z,11.12
2023-10-08T20:30:29.037Z,11.08
2023-10-08T20:33:00.694Z,11.09
2023-10-08T20:35:29.968Z,10.91
2023-10-08T20:37:57.789Z,11.04
2023-10-08T20:40:26.602Z,11.03
2023-10-08T20:42:56.796Z,10.90
2023-10-08T20:45:28.167Z,10.94
2023-10-08T20:47:57.576Z,10.89
2023-10-08T20:50:31.946Z,11.04
2023-10-08T20:53:02.694Z,11.06
2023-10-08T20:55:34.775Z,11.02
2023-10-08T20:58:02.794Z,11.01
2023-10-08T21:00:36.028Z,10.99
2023-10-08T21:03:07.401Z,10.95
2023-10-08T21:05:38.936Z,10.87
2023-10-08T21:08:06.661Z,10.82
2023-10-08T21:10:56.660Z,10.89
2023-10-08T21:13:25.646Z,10.82
2023-10-08T21:15:53.157Z,10.85
2023-10-08T21:18:20.932Z,10.81
2023-10-08T21:20:49.966Z,10.80
2023-10-08T21:23:17.056Z,10.79
2023-10-08T21:25:46.296Z,10.72
2023-10-08T21:28:16.621Z,10.63
2023-10-08T21:30:44.529Z,10.62
2023-10-08T21:33:11.578Z,10.57
2023-10-08T21:35:42.576Z,10.50
2023-10-08T21:38:11.301Z,10.45
2023-10-08T21:40:39.219Z,10.37
2023-10-08T21:43:06.054Z,10.28
2023-10-08T21:45:33.300Z,10.38
2023-10-08T21:48:01.674Z,10.51
2023-10-08T21:50:37.009Z,10.55
2023-10-08T21:53:05.088Z,10.59
2023-10-08T21:55:32.130Z,10.58
2023-10-08T21:57:59.543Z,10.51
2023-10-08T22:00:27.130Z,10.55
2023-10-08T22:02:59.682Z,10.59
2023-10-08T22:05:35.150Z,10.69
2023-10-08T22:08:07.912Z,10.65
2023-10-08T22:10:36.412Z,10.68
2023-10-08T22:13:09.874Z,10.79
2023-10-08T22:15:49.073Z,10.73
2023-10-08T22:18:28.660Z,10.67
2023-10-08T22:20:56.564Z,10.68
2023-10-08T22:23:26.801Z,10.67
2023-10-08T22:25:56.199Z,10.68
2023-10-08T22:28:25.214Z,10.61
2023-10-08T22:30:55.938Z,10.53
2023-10-08T22:33:41.192Z,10.54
2023-10-08T22:36:31.540Z,10.57
2023-10-08T22:38:58.916Z,10.58
2023-10-08T22:41:44.936Z,10.55
2023-10-08T22:44:14.719Z,10.58
2023-10-08T22:46:43.581Z,10.55
2023-10-08T22:49:20.680Z,10.62
2023-10-08T22:51:50.184Z,10.57
2023-10-08T22:54:17.888Z,10.55
2023-10-08T22:56:46.316Z,10.52
2023-10-08T22:59:13.118Z,10.49
2023-10-08T23:01:43.518Z,10.46
2023-10-08T23:04:13.582Z,10.55
2023-10-08T23:06:41.992Z,10.51
2023-10-08T23:09:10.645Z,10.42
2023-10-08T23:11:38.057Z,10.44
2023-10-08T23:14:04.838Z,10.59
2023-10-08T23:16:32.242Z,10.58
2023-10-08T23:19:01.889Z,10.56
2023-10-08T23:21:32.372Z,10.56
2023-10-08T23:23:59.520Z,10.60
2023-10-08T23:26:27.676Z,10.60
2023-10-08T23:28:56.273Z,10.54
2023-10-08T23:31:24.229Z,10.57
2023-10-08T23:33:52.497Z,10.52
2023-10-08T23:36:27.873Z,10.59
2023-10-08T23:39:07.371Z,10.57
2023-10-08T23:41:48.702Z,10.59
2023-10-08T23:44:19.517Z,10.57
2023-10-08T23:46:46.704Z,10.47
2023-10-08T23:49:20.327Z,10.37
2023-10-08T23:51:55.230Z,10.42
2023-10-08T23:54:44.500Z,10.40
2023-10-08T23:57:19.561Z,10.35
2023-10-08T23:59:46.421Z,10.23
